sensor_id;sensor_type;location;lat;lon;timestamp;pressure;altitude;pressure_sealevel;temperature;humidity
72024;BME280;59889;50.700;5.440;2024-01-27T00:00:21;101916.76;;;19.69;32.79
72024;BME280;59889;50.700;5.440;2024-01-27T00:02:46;101910.01;;;19.65;32.81
72024;BME280;59889;50.700;5.440;2024-01-27T00:05:11;101903.48;;;20.00;32.65
72024;BME280;59889;50.700;5.440;2024-01-27T00:07:36;101905.70;;;19.81;32.61
72024;BME280;59889;50.700;5.440;2024-01-27T00:10:01;101906.80;;;19.97;32.67
72024;BME280;59889;50.700;5.440;2024-01-27T00:12:26;101905.85;;;19.96;32.44
72024;BME280;59889;50.700;5.440;2024-01-27T00:14:51;101904.36;;;19.83;32.57
72024;BME280;59889;50.700;5.440;2024-01-27T00:17:16;101903.40;;;20.03;32.64
72024;BME280;59889;50.700;5.440;2024-01-27T00:19:41;101905.23;;;20.25;32.63
72024;BME280;59889;50.700;5.440;2024-01-27T00:22:06;101909.79;;;19.84;32.56
72024;BME280;59889;50.700;5.440;2024-01-27T00:24:31;101907.41;;;20.06;32.57
72024;BME280;59889;50.700;5.440;2024-01-27T00:26:56;101907.38;;;19.78;32.61
72024;BME280;59889;50.700;5.440;2024-01-27T00:29:22;101905.89;;;20.04;32.57
72024;BME280;59889;50.700;5.440;2024-01-27T00:31:46;101905.36;;;19.75;32.67
72024;BME280;59889;50.700;5.440;2024-01-27T00:34:12;101908.57;;;19.65;32.78
72024;BME280;59889;50.700;5.440;2024-01-27T00:36:37;101909.93;;;19.59;32.56
72024;BME280;59889;50.700;5.440;2024-01-27T00:39:02;101914.86;;;19.77;32.61
72024;BME280;59889;50.700;5.440;2024-01-27T00:41:27;101915.29;;;20.01;32.61
72024;BME280;59889;50.700;5.440;2024-01-27T00:43:52;101917.07;;;20.08;32.54
72024;BME280;59889;50.700;5.440;2024-01-27T00:46:17;101916.04;;;19.82;32.54
72024;BME280;59889;50.700;5.440;2024-01-27T00:48:42;101915.09;;;19.81;32.56
72024;BME280;59889;50.700;5.440;2024-01-27T00:51:07;101913.02;;;19.93;32.68
72024;BME280;59889;50.700;5.440;2024-01-27T00:53:32;101915.61;;;19.94;32.68
72024;BME280;59889;50.700;5.440;2024-01-27T00:55:57;101922.84;;;20.04;32.56
72024;BME280;59889;50.700;5.440;2024-01-27T00:58:22;101924.71;;;20.01;32.60
72024;BME280;59889;50.700;5.440;2024-01-27T01:00:47;101926.02;;;19.91;32.71
72024;BME280;59889;50.700;5.440;2024-01-27T01:03:12;101930.91;;;19.82;32.79
72024;BME280;59889;50.700;5.440;2024-01-27T01:05:37;101935.31;;;19.87;32.73
72024;BME280;59889;50.700;5.440;2024-01-27T01:08:03;101942.08;;;19.86;32.75
72024;BME280;59889;50.700;5.440;2024-01-27T01:10:28;101943.14;;;19.61;32.78
72024;BME280;59889;50.700;5.440;2024-01-27T01:12:53;101944.17;;;19.98;32.63
72024;BME280;59889;50.700;5.440;2024-01-27T01:15:18;101949.01;;;19.96;32.65
72024;BME280;59889;50.700;5.440;2024-01-27T01:17:43;101948.62;;;19.63;32.75
72024;BME280;59889;50.700;5.440;2024-01-27T01:20:08;101948.53;;;19.83;32.75
72024;BME280;59889;50.700;5.440;2024-01-27T01:22:33;101951.51;;;19.92;32.67
72024;BME280;59889;50.700;5.440;2024-01-27T01:24:58;101950.54;;;19.73;32.63
72024;BME280;59889;50.700;5.440;2024-01-27T01:27:23;101946.40;;;20.01;32.57
72024;BME280;59889;50.700;5.440;2024-01-27T01:29:48;101943.54;;;19.98;32.58
72024;BME280;59889;50.700;5.440;2024-01-27T01:32:13;101944.66;;;19.94;32.63
72024;BME280;59889;50.700;5.440;2024-01-27T01:34:38;101942.41;;;19.69;32.64
72024;BME280;59889;50.700;5.440;2024-01-27T01:37:03;101941.05;;;19.90;32.68
72024;BME280;59889;50.700;5.440;2024-01-27T01:39:28;101940.91;;;19.99;32.58
72024;BME280;59889;50.700;5.440;2024-01-27T01:41:54;101939.10;;;19.66;32.68
72024;BME280;59889;50.700;5.440;2024-01-27T01:44:19;101934.36;;;19.67;32.63
72024;BME280;59889;50.700;5.440;2024-01-27T01:46:44;101936.75;;;19.90;32.68
72024;BME280;59889;50.700;5.440;2024-01-27T01:49:09;101938.58;;;19.79;32.79
72024;BME280;59889;50.700;5.440;2024-01-27T01:51:34;101944.08;;;19.47;32.64
72024;BME280;59889;50.700;5.440;2024-01-27T01:54:00;101948.48;;;19.98;32.58
72024;BME280;59889;50.700;5.440;2024-01-27T01:56:25;101947.32;;;19.76;32.53
72024;BME280;59889;50.700;5.440;2024-01-27T01:58:49;101943.29;;;20.00;32.51
72024;BME280;59889;50.700;5.440;2024-01-27T02:01:14;101943.89;;;19.97;32.56
72024;BME280;59889;50.700;5.440;2024-01-27T02:03:39;101943.22;;;19.70;32.59
72024;BME280;59889;50.700;5.440;2024-01-27T02:06:05;101945.19;;;19.94;32.61
72024;BME280;59889;50.700;5.440;2024-01-27T02:08:29;101947.80;;;19.82;32.70
72024;BME280;59889;50.700;5.440;2024-01-27T02:10:55;101944.90;;;19.77;32.53
72024;BME280;59889;50.700;5.440;2024-01-27T02:13:21;101940.15;;;19.81;32.44
72024;BME280;59889;50.700;5.440;2024-01-27T02:15:45;101940.43;;;19.36;32.66
72024;BME280;59889;50.700;5.440;2024-01-27T02:18:10;101938.26;;;19.74;32.52
72024;BME280;59889;50.700;5.440;2024-01-27T02:20:35;101938.80;;;19.37;32.63
72024;BME280;59889;50.700;5.440;2024-01-27T02:23:00;101941.69;;;19.68;32.59
72024;BME280;59889;50.700;5.440;2024-01-27T02:25:25;101937.68;;;19.91;32.60
72024;BME280;59889;50.700;5.440;2024-01-27T02:27:50;101937.80;;;19.96;32.55
72024;BME280;59889;50.700;5.440;2024-01-27T02:30:15;101939.81;;;19.91;32.59
72024;BME280;59889;50.700;5.440;2024-01-27T02:32:40;101947.51;;;19.70;32.55
72024;BME280;59889;50.700;5.440;2024-01-27T02:35:06;101953.33;;;19.81;32.70
72024;BME280;59889;50.700;5.440;2024-01-27T02:37:30;101951.49;;;19.79;32.70
72024;BME280;59889;50.700;5.440;2024-01-27T02:39:55;101948.77;;;19.81;32.73
72024;BME280;59889;50.700;5.440;2024-01-27T02:42:20;101946.12;;;19.65;32.62
72024;BME280;59889;50.700;5.440;2024-01-27T02:44:45;101942.42;;;19.90;32.61
72024;BME280;59889;50.700;5.440;2024-01-27T02:47:10;101939.06;;;19.79;32.72
72024;BME280;59889;50.700;5.440;2024-01-27T02:49:36;101942.34;;;19.67;32.61
72024;BME280;59889;50.700;5.440;2024-01-27T02:52:01;101938.83;;;19.77;32.73
72024;BME280;59889;50.700;5.440;2024-01-27T02:54:26;101930.46;;;19.88;32.64
72024;BME280;59889;50.700;5.440;2024-01-27T02:56:51;101934.84;;;19.72;32.55
72024;BME280;59889;50.700;5.440;2024-01-27T02:59:16;101941.06;;;19.85;32.67
72024;BME280;59889;50.700;5.440;2024-01-27T03:01:41;101937.66;;;19.60;32.66
72024;BME280;59889;50.700;5.440;2024-01-27T03:04:06;101943.30;;;19.73;32.52
72024;BME280;59889;50.700;5.440;2024-01-27T03:06:31;101945.55;;;19.95;32.52
72024;BME280;59889;50.700;5.440;2024-01-27T03:08:56;101944.42;;;19.93;32.57
72024;BME280;59889;50.700;5.440;2024-01-27T03:11:21;101946.65;;;19.87;32.62
72024;BME280;59889;50.700;5.440;2024-01-27T03:13:46;101948.11;;;19.86;32.62
72024;BME280;59889;50.700;5.440;2024-01-27T03:16:11;101951.52;;;19.91;32.59
72024;BME280;59889;50.700;5.440;2024-01-27T03:18:37;101951.98;;;19.86;32.63
72024;BME280;59889;50.700;5.440;2024-01-27T03:21:02;101954.72;;;19.75;32.72
72024;BME280;59889;50.700;5.440;2024-01-27T03:23:26;101954.24;;;19.87;32.60
72024;BME280;59889;50.700;5.440;2024-01-27T03:25:52;101949.91;;;19.85;32.63
72024;BME280;59889;50.700;5.440;2024-01-27T03:28:17;101947.80;;;19.82;32.67
72024;BME280;59889;50.700;5.440;2024-01-27T03:30:42;101947.03;;;19.70;32.52
72024;BME280;59889;50.700;5.440;2024-01-27T03:33:07;101946.45;;;19.92;32.55
72024;BME280;59889;50.700;5.440;2024-01-27T03:35:32;101944.45;;;19.91;32.55
72024;BME280;59889;50.700;5.440;2024-01-27T03:37:57;101944.23;;;19.93;32.53
72024;BME280;59889;50.700;5.440;2024-01-27T03:40:22;101944.22;;;19.92;32.52
72024;BME280;59889;50.700;5.440;2024-01-27T03:42:47;101944.74;;;19.86;32.58
72024;BME280;59889;50.700;5.440;2024-01-27T03:45:12;101947.72;;;19.92;32.51
72024;BME280;59889;50.700;5.440;2024-01-27T03:47:38;101951.85;;;19.91;32.51
72024;BME280;59889;50.700;5.440;2024-01-27T03:50:03;101951.07;;;19.95;32.49
72024;BME280;59889;50.700;5.440;2024-01-27T03:52:27;101955.41;;;19.59;32.60
72024;BME280;59889;50.700;5.440;2024-01-27T03:54:52;101953.65;;;19.84;32.59
72024;BME280;59889;50.700;5.440;2024-01-27T03:57:18;101945.91;;;19.75;32.69
72024;BME280;59889;50.700;5.440;2024-01-27T03:59:43;101943.53;;;19.57;32.62
72024;BME280;59889;50.700;5.440;2024-01-27T04:02:08;101942.81;;;19.82;32.59
72024;BME280;59889;50.700;5.440;2024-01-27T04:04:33;101943.93;;;19.76;32.66
72024;BME280;59889;50.700;5.440;2024-01-27T04:06:58;101940.65;;;19.79;32.60
72024;BME280;59889;50.700;5.440;2024-01-27T04:09:23;101937.32;;;19.59;32.56
72024;BME280;59889;50.700;5.440;2024-01-27T04:11:48;101935.47;;;19.81;32.57
72024;BME280;59889;50.700;5.440;2024-01-27T04:14:13;101934.52;;;19.87;32.51
72024;BME280;59889;50.700;5.440;2024-01-27T04:16:38;101931.31;;;19.85;32.51
72024;BME280;59889;50.700;5.440;2024-01-27T04:19:03;101938.31;;;19.68;32.70
72024;BME280;59889;50.700;5.440;2024-01-27T04:21:28;101935.63;;;19.73;32.66
72024;BME280;59889;50.700;5.440;2024-01-27T04:23:53;101934.51;;;19.80;32.56
72024;BME280;59889;50.700;5.440;2024-01-27T04:26:18;101935.61;;;19.74;32.65
72024;BME280;59889;50.700;5.440;2024-01-27T04:28:43;101940.26;;;19.78;32.59
72024;BME280;59889;50.700;5.440;2024-01-27T04:31:09;101946.41;;;19.86;32.51
72024;BME280;59889;50.700;5.440;2024-01-27T04:33:34;101948.11;;;19.43;32.69
72024;BME280;59889;50.700;5.440;2024-01-27T04:35:59;101946.18;;;19.87;32.50
72024;BME280;59889;50.700;5.440;2024-01-27T04:38:24;101948.03;;;19.83;32.53
72024;BME280;59889;50.700;5.440;2024-01-27T04:40:49;101946.32;;;19.78;32.58
72024;BME280;59889;50.700;5.440;2024-01-27T04:43:14;101949.86;;;19.82;32.51
72024;BME280;59889;50.700;5.440;2024-01-27T04:45:39;101952.37;;;19.88;32.43
72024;BME280;59889;50.700;5.440;2024-01-27T04:48:05;101959.83;;;20.00;32.58
72024;BME280;59889;50.700;5.440;2024-01-27T04:50:29;101958.11;;;19.77;32.55
72024;BME280;59889;50.700;5.440;2024-01-27T04:52:54;101959.79;;;19.78;32.54
72024;BME280;59889;50.700;5.440;2024-01-27T04:55:19;101961.31;;;19.70;32.62
72024;BME280;59889;50.700;5.440;2024-01-27T04:57:44;101963.09;;;19.80;32.51
72024;BME280;59889;50.700;5.440;2024-01-27T05:00:11;101964.65;;;19.75;32.57
72024;BME280;59889;50.700;5.440;2024-01-27T05:02:34;101964.45;;;19.22;32.62
72024;BME280;59889;50.700;5.440;2024-01-27T05:05:00;101968.44;;;20.10;32.44
72024;BME280;59889;50.700;5.440;2024-01-27T05:07:25;101963.66;;;19.72;32.59
72024;BME280;59889;50.700;5.440;2024-01-27T05:09:50;101969.64;;;19.68;32.61
72024;BME280;59889;50.700;5.440;2024-01-27T05:12:15;101972.71;;;19.79;32.52
72024;BME280;59889;50.700;5.440;2024-01-27T05:14:43;101965.44;;;19.93;32.63
72024;BME280;59889;50.700;5.440;2024-01-27T05:17:05;101968.05;;;19.72;32.60
72024;BME280;59889;50.700;5.440;2024-01-27T05:19:30;101962.89;;;19.68;32.59
72024;BME280;59889;50.700;5.440;2024-01-27T05:21:55;101959.99;;;19.65;32.63
72024;BME280;59889;50.700;5.440;2024-01-27T05:24:20;101966.87;;;19.88;32.62
72024;BME280;59889;50.700;5.440;2024-01-27T05:26:45;101968.92;;;19.48;32.54
72024;BME280;59889;50.700;5.440;2024-01-27T05:29:10;101972.19;;;19.71;32.55
72024;BME280;59889;50.700;5.440;2024-01-27T05:31:35;101976.81;;;19.22;32.56
72024;BME280;59889;50.700;5.440;2024-01-27T05:34:00;101971.37;;;19.76;32.48
72024;BME280;59889;50.700;5.440;2024-01-27T05:36:25;101976.00;;;19.55;32.73
72024;BME280;59889;50.700;5.440;2024-01-27T05:38:51;101969.36;;;19.52;32.48
72024;BME280;59889;50.700;5.440;2024-01-27T05:41:16;101968.78;;;19.79;32.46
72024;BME280;59889;50.700;5.440;2024-01-27T05:43:41;101976.82;;;19.72;32.51
72024;BME280;59889;50.700;5.440;2024-01-27T05:46:08;101975.31;;;19.62;32.61
72024;BME280;59889;50.700;5.440;2024-01-27T05:48:31;101970.57;;;19.92;32.55
72024;BME280;59889;50.700;5.440;2024-01-27T05:50:57;101973.19;;;19.61;32.62
72024;BME280;59889;50.700;5.440;2024-01-27T05:53:21;101964.60;;;19.63;32.60
72024;BME280;59889;50.700;5.440;2024-01-27T05:55:46;101958.26;;;19.55;32.69
72024;BME280;59889;50.700;5.440;2024-01-27T05:58:11;101957.93;;;19.90;32.54
72024;BME280;59889;50.700;5.440;2024-01-27T06:00:36;101962.40;;;19.63;32.58
72024;BME280;59889;50.700;5.440;2024-01-27T06:03:01;101958.68;;;19.63;32.60
72024;BME280;59889;50.700;5.440;2024-01-27T06:05:26;101959.92;;;19.62;32.59
72024;BME280;59889;50.700;5.440;2024-01-27T06:07:51;101952.07;;;19.92;32.53
72024;BME280;59889;50.700;5.440;2024-01-27T06:10:17;101947.22;;;19.89;32.55
72024;BME280;59889;50.700;5.440;2024-01-27T06:12:42;101950.61;;;19.75;32.44
72024;BME280;59889;50.700;5.440;2024-01-27T06:15:08;101952.61;;;19.70;32.51
72024;BME280;59889;50.700;5.440;2024-01-27T06:17:32;101957.44;;;19.65;32.58
72024;BME280;59889;50.700;5.440;2024-01-27T06:19:57;101965.20;;;19.70;32.51
72024;BME280;59889;50.700;5.440;2024-01-27T06:22:22;101972.68;;;19.60;32.62
72024;BME280;59889;50.700;5.440;2024-01-27T06:24:47;101985.07;;;19.64;32.58
72024;BME280;59889;50.700;5.440;2024-01-27T06:27:12;101981.78;;;19.39;32.57
72024;BME280;59889;50.700;5.440;2024-01-27T06:29:37;101981.94;;;19.67;32.53
72024;BME280;59889;50.700;5.440;2024-01-27T06:32:03;101976.47;;;19.65;32.57
72024;BME280;59889;50.700;5.440;2024-01-27T06:34:27;101974.16;;;19.85;32.61
72024;BME280;59889;50.700;5.440;2024-01-27T06:36:53;101977.39;;;19.90;32.55
72024;BME280;59889;50.700;5.440;2024-01-27T06:39:17;101984.76;;;19.50;32.71
72024;BME280;59889;50.700;5.440;2024-01-27T06:41:43;101988.01;;;19.36;32.62
72024;BME280;59889;50.700;5.440;2024-01-27T06:44:08;101987.94;;;19.68;32.53
72024;BME280;59889;50.700;5.440;2024-01-27T06:46:33;101990.56;;;19.83;32.62
72024;BME280;59889;50.700;5.440;2024-01-27T06:48:58;101993.67;;;19.64;32.58
72024;BME280;59889;50.700;5.440;2024-01-27T06:51:23;101992.92;;;19.50;32.46
72024;BME280;59889;50.700;5.440;2024-01-27T06:53:48;101997.79;;;19.73;32.47
72024;BME280;59889;50.700;5.440;2024-01-27T06:56:13;101993.77;;;19.63;32.57
72024;BME280;59889;50.700;5.440;2024-01-27T06:58:38;101992.23;;;19.52;32.45
72024;BME280;59889;50.700;5.440;2024-01-27T07:01:06;101999.83;;;19.90;32.29
72024;BME280;59889;50.700;5.440;2024-01-27T07:03:28;101997.63;;;19.84;32.33
72024;BME280;59889;50.700;5.440;2024-01-27T07:05:53;101993.72;;;19.79;32.35
72024;BME280;59889;50.700;5.440;2024-01-27T07:08:19;101997.03;;;19.68;32.50
72024;BME280;59889;50.700;5.440;2024-01-27T07:10:43;101999.09;;;19.57;32.36
72024;BME280;59889;50.700;5.440;2024-01-27T07:13:09;102002.16;;;19.94;32.21
72024;BME280;59889;50.700;5.440;2024-01-27T07:15:34;101998.81;;;19.86;32.29
72024;BME280;59889;50.700;5.440;2024-01-27T07:17:59;101996.85;;;19.77;32.62
72024;BME280;59889;50.700;5.440;2024-01-27T07:20:24;102003.88;;;19.53;32.68
72024;BME280;59889;50.700;5.440;2024-01-27T07:22:49;102010.96;;;19.95;32.44
72024;BME280;59889;50.700;5.440;2024-01-27T07:25:14;102005.36;;;19.76;32.40
72024;BME280;59889;50.700;5.440;2024-01-27T07:27:39;101997.80;;;19.76;32.40
72024;BME280;59889;50.700;5.440;2024-01-27T07:30:05;101987.06;;;19.80;32.35
72024;BME280;59889;50.700;5.440;2024-01-27T07:32:29;101977.81;;;19.64;32.53
72024;BME280;59889;50.700;5.440;2024-01-27T07:34:54;101977.48;;;19.42;32.50
72024;BME280;59889;50.700;5.440;2024-01-27T07:37:19;101979.33;;;19.61;32.53
72024;BME280;59889;50.700;5.440;2024-01-27T07:39:44;101980.63;;;19.55;32.60
72024;BME280;59889;50.700;5.440;2024-01-27T07:42:10;101985.90;;;20.10;32.27
72024;BME280;59889;50.700;5.440;2024-01-27T07:44:34;101989.91;;;19.47;32.44
72024;BME280;59889;50.700;5.440;2024-01-27T07:47:00;101992.94;;;19.67;32.47
72024;BME280;59889;50.700;5.440;2024-01-27T07:49:25;101988.00;;;19.83;32.32
72024;BME280;59889;50.700;5.440;2024-01-27T07:51:50;101988.42;;;19.93;32.44
72024;BME280;59889;50.700;5.440;2024-01-27T07:54:15;101986.33;;;19.87;32.54
72024;BME280;59889;50.700;5.440;2024-01-27T07:56:40;101985.60;;;19.58;32.55
72024;BME280;59889;50.700;5.440;2024-01-27T07:59:05;101984.18;;;19.70;32.45
72024;BME280;59889;50.700;5.440;2024-01-27T08:01:30;101984.20;;;19.62;32.56
72024;BME280;59889;50.700;5.440;2024-01-27T08:03:55;101986.10;;;20.13;32.53
72024;BME280;59889;50.700;5.440;2024-01-27T08:06:27;101987.94;;;19.52;32.67
72024;BME280;59889;50.700;5.440;2024-01-27T08:08:46;101993.47;;;19.58;32.60
72024;BME280;59889;50.700;5.440;2024-01-27T08:11:10;101988.77;;;19.70;32.51
72024;BME280;59889;50.700;5.440;2024-01-27T08:13:35;101994.25;;;19.72;32.47
72024;BME280;59889;50.700;5.440;2024-01-27T08:16:01;101997.37;;;19.59;32.61
72024;BME280;59889;50.700;5.440;2024-01-27T08:18:26;101997.57;;;19.37;32.62
72024;BME280;59889;50.700;5.440;2024-01-27T08:20:51;102004.20;;;19.36;32.62
72024;BME280;59889;50.700;5.440;2024-01-27T08:23:16;101997.28;;;19.86;32.60
72024;BME280;59889;50.700;5.440;2024-01-27T08:25:41;101992.98;;;19.42;32.57
72024;BME280;59889;50.700;5.440;2024-01-27T08:28:06;101993.31;;;19.56;32.68
72024;BME280;59889;50.700;5.440;2024-01-27T08:30:31;101990.95;;;19.65;32.58
72024;BME280;59889;50.700;5.440;2024-01-27T08:32:56;101985.47;;;19.68;32.55
72024;BME280;59889;50.700;5.440;2024-01-27T08:35:21;101988.12;;;19.76;32.52
72024;BME280;59889;50.700;5.440;2024-01-27T08:37:46;101992.14;;;19.84;32.38
72024;BME280;59889;50.700;5.440;2024-01-27T08:40:12;102004.84;;;19.72;32.54
72024;BME280;59889;50.700;5.440;2024-01-27T08:42:36;102009.53;;;19.25;32.57
72024;BME280;59889;50.700;5.440;2024-01-27T08:45:02;102013.11;;;19.84;32.41
72024;BME280;59889;50.700;5.440;2024-01-27T08:47:27;102012.36;;;19.73;32.53
72024;BME280;59889;50.700;5.440;2024-01-27T08:49:52;102014.52;;;19.45;32.57
72024;BME280;59889;50.700;5.440;2024-01-27T08:52:17;102014.99;;;19.60;32.41
72024;BME280;59889;50.700;5.440;2024-01-27T08:54:42;102010.08;;;19.63;32.40
72024;BME280;59889;50.700;5.440;2024-01-27T08:57:07;102012.81;;;19.73;32.53
72024;BME280;59889;50.700;5.440;2024-01-27T08:59:32;102018.76;;;19.61;32.44
72024;BME280;59889;50.700;5.440;2024-01-27T09:01:57;102023.79;;;19.91;32.35
72024;BME280;59889;50.700;5.440;2024-01-27T09:04:22;102024.67;;;19.78;32.22
72024;BME280;59889;50.700;5.440;2024-01-27T09:06:47;102021.77;;;19.88;32.37
72024;BME280;59889;50.700;5.440;2024-01-27T09:09:12;102022.38;;;19.84;32.43
72024;BME280;59889;50.700;5.440;2024-01-27T09:11:37;102027.18;;;19.77;32.25
72024;BME280;59889;50.700;5.440;2024-01-27T09:14:03;102031.08;;;19.53;32.47
72024;BME280;59889;50.700;5.440;2024-01-27T09:16:28;102031.98;;;20.24;32.28
72024;BME280;59889;50.700;5.440;2024-01-27T09:18:53;102032.50;;;19.86;32.45
72024;BME280;59889;50.700;5.440;2024-01-27T09:21:19;102030.74;;;19.83;32.46
72024;BME280;59889;50.700;5.440;2024-01-27T09:23:43;102028.37;;;19.56;32.50
72024;BME280;59889;50.700;5.440;2024-01-27T09:26:08;102032.09;;;19.53;32.56
72024;BME280;59889;50.700;5.440;2024-01-27T09:28:33;102029.24;;;19.46;32.86
72024;BME280;59889;50.700;5.440;2024-01-27T09:30:58;102037.25;;;19.66;32.41
72024;BME280;59889;50.700;5.440;2024-01-27T09:33:23;102031.51;;;19.55;32.77
72024;BME280;59889;50.700;5.440;2024-01-27T09:35:48;102035.24;;;19.72;32.61
72024;BME280;59889;50.700;5.440;2024-01-27T09:38:13;102037.96;;;19.21;32.93
72024;BME280;59889;50.700;5.440;2024-01-27T09:40:38;102036.85;;;20.08;32.19
72024;BME280;59889;50.700;5.440;2024-01-27T09:43:04;102046.46;;;19.67;32.37
72024;BME280;59889;50.700;5.440;2024-01-27T09:45:29;102048.52;;;19.82;32.19
72024;BME280;59889;50.700;5.440;2024-01-27T09:47:56;102043.60;;;20.05;32.18
72024;BME280;59889;50.700;5.440;2024-01-27T09:50:19;102043.59;;;19.97;32.30
72024;BME280;59889;50.700;5.440;2024-01-27T09:52:44;102040.91;;;19.60;32.12
72024;BME280;59889;50.700;5.440;2024-01-27T09:55:09;102040.55;;;19.99;32.25
72024;BME280;59889;50.700;5.440;2024-01-27T09:57:34;102042.28;;;19.93;32.29
72024;BME280;59889;50.700;5.440;2024-01-27T10:00:01;102046.40;;;19.64;32.37
72024;BME280;59889;50.700;5.440;2024-01-27T10:02:25;102051.40;;;19.63;32.64
72024;BME280;59889;50.700;5.440;2024-01-27T10:04:49;102050.84;;;19.62;32.42
72024;BME280;59889;50.700;5.440;2024-01-27T10:07:14;102048.28;;;19.61;32.73
72024;BME280;59889;50.700;5.440;2024-01-27T10:09:39;102057.67;;;19.34;32.51
72024;BME280;59889;50.700;5.440;2024-01-27T10:12:05;102059.60;;;19.70;32.35
72024;BME280;59889;50.700;5.440;2024-01-27T10:14:38;102050.28;;;19.66;32.44
72024;BME280;59889;50.700;5.440;2024-01-27T10:16:55;102047.81;;;19.49;32.60
72024;BME280;59889;50.700;5.440;2024-01-27T10:19:20;102052.23;;;19.80;32.44
72024;BME280;59889;50.700;5.440;2024-01-27T10:21:46;102056.01;;;19.67;32.33
72024;BME280;59889;50.700;5.440;2024-01-27T10:24:10;102053.16;;;19.73;32.56
72024;BME280;59889;50.700;5.440;2024-01-27T10:26:36;102053.82;;;19.14;32.42
72024;BME280;59889;50.700;5.440;2024-01-27T10:29:01;102058.47;;;19.89;32.08
72024;BME280;59889;50.700;5.440;2024-01-27T10:31:26;102057.57;;;19.94;32.06
72024;BME280;59889;50.700;5.440;2024-01-27T10:33:52;102050.65;;;19.43;32.56
72024;BME280;59889;50.700;5.440;2024-01-27T10:36:16;102044.84;;;19.88;32.44
72024;BME280;59889;50.700;5.440;2024-01-27T10:38:41;102045.22;;;20.00;32.27
72024;BME280;59889;50.700;5.440;2024-01-27T10:41:08;102049.64;;;19.71;32.08
72024;BME280;59889;50.700;5.440;2024-01-27T10:43:31;102050.26;;;20.09;32.18
72024;BME280;59889;50.700;5.440;2024-01-27T10:45:57;102049.56;;;20.15;31.87
72024;BME280;59889;50.700;5.440;2024-01-27T10:48:23;102050.20;;;19.82;31.97
72024;BME280;59889;50.700;5.440;2024-01-27T10:50:47;102045.59;;;20.26;32.01
72024;BME280;59889;50.700;5.440;2024-01-27T10:53:21;102041.84;;;19.70;32.36
72024;BME280;59889;50.700;5.440;2024-01-27T10:55:37;102044.07;;;19.84;32.03
72024;BME280;59889;50.700;5.440;2024-01-27T10:58:02;102050.32;;;19.73;32.41
72024;BME280;59889;50.700;5.440;2024-01-27T11:00:27;102051.18;;;19.92;32.17
72024;BME280;59889;50.700;5.440;2024-01-27T11:02:52;102049.45;;;19.72;32.16
72024;BME280;59889;50.700;5.440;2024-01-27T11:05:17;102046.29;;;20.12;32.19
72024;BME280;59889;50.700;5.440;2024-01-27T11:07:42;102044.87;;;20.10;32.31
72024;BME280;59889;50.700;5.440;2024-01-27T11:10:07;102043.78;;;19.81;32.36
72024;BME280;59889;50.700;5.440;2024-01-27T11:12:32;102043.19;;;20.36;32.03
72024;BME280;59889;50.700;5.440;2024-01-27T11:14:57;102043.38;;;19.94;32.27
72024;BME280;59889;50.700;5.440;2024-01-27T11:17:22;102043.67;;;20.07;32.10
72024;BME280;59889;50.700;5.440;2024-01-27T11:19:47;102047.51;;;19.66;32.25
72024;BME280;59889;50.700;5.440;2024-01-27T11:24:38;102038.00;;;19.48;32.49
72024;BME280;59889;50.700;5.440;2024-01-27T11:27:03;102039.58;;;20.31;32.13
72024;BME280;59889;50.700;5.440;2024-01-27T11:29:27;102033.62;;;20.20;32.23
72024;BME280;59889;50.700;5.440;2024-01-27T11:31:54;102036.04;;;19.92;32.04
72024;BME280;59889;50.700;5.440;2024-01-27T11:34:18;102037.84;;;20.33;32.14
72024;BME280;59889;50.700;5.440;2024-01-27T11:36:43;102040.30;;;19.72;32.29
72024;BME280;59889;50.700;5.440;2024-01-27T11:41:33;102034.72;;;20.20;32.30
72024;BME280;59889;50.700;5.440;2024-01-27T11:43:58;102035.81;;;20.21;32.29
72024;BME280;59889;50.700;5.440;2024-01-27T11:46:23;102036.55;;;19.80;32.23
72024;BME280;59889;50.700;5.440;2024-01-27T11:48:48;102036.21;;;19.90;32.15
72024;BME280;59889;50.700;5.440;2024-01-27T11:51:13;102035.46;;;19.18;32.97
72024;BME280;59889;50.700;5.440;2024-01-27T11:53:38;102034.32;;;19.29;32.83
72024;BME280;59889;50.700;5.440;2024-01-27T11:56:03;102027.46;;;19.73;32.58
72024;BME280;59889;50.700;5.440;2024-01-27T11:58:28;102017.31;;;19.97;32.33
72024;BME280;59889;50.700;5.440;2024-01-27T12:00:53;102016.49;;;20.05;32.56
72024;BME280;59889;50.700;5.440;2024-01-27T12:03:18;102015.51;;;20.00;32.64
72024;BME280;59889;50.700;5.440;2024-01-27T12:05:43;102013.33;;;19.64;32.76
72024;BME280;59889;50.700;5.440;2024-01-27T12:08:08;102015.14;;;19.58;32.89
72024;BME280;59889;50.700;5.440;2024-01-27T12:10:33;102016.07;;;19.76;32.63
72024;BME280;59889;50.700;5.440;2024-01-27T12:12:58;102019.53;;;19.37;33.14
72024;BME280;59889;50.700;5.440;2024-01-27T12:15:23;102019.34;;;19.85;32.88
72024;BME280;59889;50.700;5.440;2024-01-27T12:17:50;102014.15;;;20.04;32.64
72024;BME280;59889;50.700;5.440;2024-01-27T12:20:14;102009.70;;;19.60;32.87
72024;BME280;59889;50.700;5.440;2024-01-27T12:22:39;102006.54;;;19.72;32.71
72024;BME280;59889;50.700;5.440;2024-01-27T12:25:08;102004.19;;;19.03;33.54
72024;BME280;59889;50.700;5.440;2024-01-27T12:27:29;102002.12;;;19.78;32.95
72024;BME280;59889;50.700;5.440;2024-01-27T12:29:56;101999.07;;;19.92;32.82
72024;BME280;59889;50.700;5.440;2024-01-27T12:32:19;101998.65;;;20.15;32.87
72024;BME280;59889;50.700;5.440;2024-01-27T12:34:44;101995.04;;;19.57;32.94
72024;BME280;59889;50.700;5.440;2024-01-27T12:37:11;101991.44;;;19.06;33.22
72024;BME280;59889;50.700;5.440;2024-01-27T12:39:34;101989.01;;;19.51;33.00
72024;BME280;59889;50.700;5.440;2024-01-27T12:41:59;101985.24;;;19.59;32.87